Flugplatz Breitscheid

Für EDGB sind keine METAR/TAF Berichte vorhanden.
Es werden die Flugwettermeldungen vom Flugplatz Siegerland in 7 km Entfernung angezeigt.

Bericht für EDGS

vom 23.08. um 13:50 UTC

variable Windrichtung mit 5 kt

Sichtweite 10 km oder mehr

gute Sicht, keine Wolken < 5000 ft, keine CB, keine Wettererscheinungen (CAVOK)

Temperatur 24.0°C

Taupunkt 7.0°C

Luftfeuchtigkeit 34%

Luftdruck 1026 hPa

EDGS 231350Z VRB05KT CAVOK 24/07 Q1026

Prognose für EDGS

vom 23.08. um 00:00 UTC

Zwischen 00:00 UTC und 00:00 UTC

Wind 6 kt aus 90°

Sichtweite 10 km oder mehr

keine signifikanten Wettererscheinungen

keine Wolken

TAF EDGS 231100Z 2312/2321 09006KT CAVOK
Impressum